fb tw yt g+
Meteorologia

Imagen Satelital Infraroja

Smiley face

Imagen Satelital Topes Nubosos

Smiley face

Imagen Satelital Visible

Smiley face

METAR

SAAC 281800Z 05015KT CAVOK 26/13 Q1014 =
SAAG 281800Z 36021KT CAVOK 28/15 Q1011 =
SAAJ 281700Z 34017KT CAVOK 25/13 Q1010 =
SAAP 281800Z 36012KT 8000 NSC 26/15 Q1011 =
SAAR 281800Z 34019KT 9000 NSC 27/11 Q1010 =
SAAV 281800Z 05006KT CAVOK 28/15 Q1010 =
SABE 281800Z 01004KT 320V050 CAVOK 21/15 Q1012 =
SACE 261100Z 0000W/// 09/08 Q1021 =
SACO 281800Z 36020KT CAVOK 31/07 Q1008 =
SADF 281800Z 32010KT CAVOK 26/12 Q1011 =
SADM 281800Z 36012KT CAVOK 25/15 Q1010 =
SADP 281800Z 36007KT CAVOK 26/13 Q1012 =
SAEZ 281800Z 35010KT CAVOK 26/13 Q1011 =
SAME 281800Z 14010KT CAVOK 21/08 Q1010 =
SAMM 281800Z 09009KT CAVOK 16/00 Q1013 =
SAMR 281800Z 11008KT 9999 VCDU FEW030 SCT200 19/09 Q1011 =
SANC 281800Z 18010KT CAVOK 27/09 Q1006 =
SANE 281800Z 36010KT 8000 DU NSC 32/08 Q1006 =
SANR 281800Z 18010KT CAVOK 25/12 Q1006 =
SANL 281700Z 09004KT CAVOK 26/15 Q1008 =
SANT 281700Z 18008KT 5000 FU NSC 28/15 Q1007 =
SANU 281800Z 18011KT CAVOK 20/06 Q1010 =
SAOC 281800Z 20007KT 8000 FEW008 SCT100 15/13 Q1009 =
SAOR 281800Z 14009KT 1200 BKN008 16/14 Q1010 =
SAOS 281800Z 27004KT CAVOK 23/10 Q1009 =
SAOU 281800Z 32008KT 9999 FEW035 SCT200 24/12 Q1010 =
SARC 281800Z 02020KT 7000 NSC 29/08 Q1013 =
SARE 281800Z 36016KT 8000 NSC 30/08 Q1013 =
SARF 281800Z 02015KT 8000 NSC 30/10 Q1015 =
SARI 281800Z 09005KT CAVOK 27/13 Q1020 =
SARL 281800Z 02012KT 6000 NSC 28/13 Q1016 =
SARP 281800Z 02011KT CAVOK 30/13 Q1018 =
SASA 281800Z 02004KT 8000 NSC 26/12 Q1012 =
SASJ 281800Z 05007G18KT 330V090 3000 HZ FU NSC 26/14 Q1011 =
SAST 281700Z 36012KT CAVOK 31/10 Q1009 =
SATR 281800Z 02017KT 8000 NSC 30/12 Q1011 =
SAVC 281800Z 27010KT 9999 FEW035 12/00 Q1009 =
SAVE 281800Z 32012KT 9999 SCT027 SCT200 04/00 Q1011 =
SAVT 281800Z 29020KT 9999 FEW040 15/M04 Q1010 =
SAVV 281800Z 23012KT CAVOK 11/03 Q1011 =
SAVY 281800Z 25014KT 9999 FEW040 15/04 Q1010 =
SAWC 281800Z 05007KT 9999 FEW030 05/M02 Q1008 =
SAWD 151500Z 36019KT CAVOK 17/06 Q1020 =
SAWE 281700Z 25007KT CAVOK 02/M03 Q1004 =
SAWG 281800Z 23015KT 9999 FEW030 03/M06 Q1007 =
SAWH 281800Z 23017KT 9999 SCT040 03/M04 Q1003 =
SAWJ 281800Z 18017KT 9999 SCT015 06/M01 Q1008 =
SAWP 281800Z 29024KT 9999 FEW023 07/M04 Q1007 =
SAWU 281800Z 18012KT 9999 FEW025 SCT100 04/M04 Q1008 =
SAZA 281800Z 32010KT 8000 HZ NSC 20/13 Q1010 =
SAZB 281800Z 27007KT CAVOK 17/12 Q1012 =
SAZG 281700Z 16015KT 0300 FG 16/15 Q1009 =
SAZM 281800Z 34013KT CAVOK 21/15 Q1010 =
SAZN 281800Z 23004KT CAVOK 13/04 Q1014 =
SAZR 281800Z 14010KT 9999 FEW025 SCT200 17/12 Q1011 =
SAZS 281800Z 29016G26KT 9000 SHRASN FEW009 SCT031 03/01 Q1014 =
SAZT 281800Z 36010KT CAVOK 19/15 Q1010 =
SAZY 281800Z 29021G31KT 9999 SCT030 SCT100 05/00 Q1013 =
SUAA 281800Z 02017KT CAVOK 25/15 Q1014 =
SUCA 281800Z 35010KT CAVOK 25/15 Q1010 =
SUDU 281800Z 36012KT CAVOK 25/16 Q1014 =
SULS 281800Z 03010KT CAVOK 22/14 Q1015 =
SUMU 281800Z 01009KT CAVOK 25/14 Q1014 NOSIG =
SUSO 281700Z 04015KT CAVOK 26/13 Q1015 =

TAF

SABE 280500Z 2806/2906 01010KT CAVOK TX22/2818Z TN15/2810Z =
SANC 280500Z 2809/2906 VRB05KT CAVOK TX30/2818Z TN12/2812Z BECMG 2813/2816 23010KT =
SAZY 280500Z 2806/2906 25005KT 9999 OVC025 TX05/2818Z TNM02/2906Z BECMG 2808/2810 5000 RADZ SCT010 BKN030 BECMG 2818/2820 25015G25KT 9999 SCT030 =
SAVC 280500Z 2806/2906 32015KT CAVOK TX14/2819Z TN05/2812Z BECMG 2810/2813 29010KT 9999 FEW030 SCT090 =
SACO 280500Z 2809/2906 34005KT 7000 BR SCT020 TX28/2818Z TN12/2810Z TEMPO 2808/2811 0700 BCFG BKN007 BECMG 2813/2816 02020KT 9999 SCT025 =
SARC 280500Z 2806/2906 05005KT 8000 NSC TX32/2818Z TN16/2809Z BECMG 2813/2815 05015KT CAVOK BECMG 2822/2824 05005KT 7000 NSC =
SAWC 280500Z 2806/2906 09004KT 9999 FEW030 TX08/2819Z TNM03/2812Z BECMG 2810/2812 21010KT SCT030 SCT090 =
SAVE 280500Z 2806/2906 27010KT 9999-RA SCT015 BKN100 TX06/2819Z TNM01/2812Z PROB40 TEMPO 2812/2815 2000 RASN BKN012 BKN050 =
SAEZ 280500Z 2806/2906 05010KT CAVOK TX25/2818Z TN16/2810Z PROB40 2806/2812 VRB03KT 3000 BR NSC BECMG 2814/2816 36015KT BECMG 2820/2822 05010KT =
SARF 280500Z 2806/2906 05005KT CAVOK TX32/2818Z TN15/2809Z BECMG 2814/2816 05015KT BECMG 2822/2824 05005KT =
SARI 280500Z 2806/2906 VRB03KT CAVOK TX29/2818Z TN14/2809Z BECMG 2815/2817 05015KT BECMG 2822/2824 05005KT =
SASJ 280500Z 2809/2906 VRB03KT 6000 BR SCT010 BKN020 TX28/2818Z TN14/2810Z TEMPO 2809/2812 VRB03KT 3000 BR BKN010 BECMG 2813/2816 05010KT 9999 SCT030 =
SANL 280500Z 2809/2906 VRB03KT CAVOK TX28/2818Z TN10/2810Z BECMG 2813/2816 18010KT =
SAZM 280500Z 2806/2906 36010KT 9999 SCT020 BKN100 TX20/2818Z TN13/2906Z PROB40 TEMPO 2808/2811 36005KT 0500 BCFG BECMG 2820/2823 20005KT BKN012 OVC020 =
SAME 280500Z 2809/2906 VRB05KT CAVOK TN05/2810Z TX22/2820Z PROB40 TEMPO 2811/2814 16005KT 6000 HZFU NSC BECMG 2814/2817 18010KT 9999 SCT040 =
SAZN 280500Z 2806/2906 VRB03KT CAVOK TX15/2818Z TN04/2906Z BECMG 2812/2820 20010KT =
SAAP 280500Z 2806/2906 02010KT CAVOK TX27/2818Z TN18/2810Z BECMG 2813/2815 02015KT BECMG 2819/2821 05010KT =
SARP 280500Z 2806/2906 07005KT CAVOK TX30/2818Z TN14/2809Z BECMG 2812/2814 05015KT BECMG 2822/2824 05005KT =
SARE 280500Z 2806/2906 05005KT 8000 NSC TX32/2818Z TN16/2809Z BECMG 2813/2815 05015KT CAVOK BECMG 2822/2824 05005KT 7000 NSC =
SAWG 280500Z 2806/2906 25005KT CAVOK TX09/2819Z TNM02/2812Z BECMG 2809/2812 21010KT 9999 FEW030 SCT090 =
SAWE 280500Z 2806/2906 18007KT CAVOK TX08/2819Z TNM02/2812Z BECMG 2809/2812 23015KT 9999 FEW030 SCT080 =
SAAR 280500Z 2806/2906 05010KT CAVOK TX26/2818Z TN17/2810Z BECMG 2815/2817 36015KT BECMG 2820/2822 05010KT =
SASA 280500Z 2809/2906 27005KT 7000 FU BR SCT015 BKN060 TX27/2818Z TN12/2810Z TEMPO 2809/2812 27005KT 2000 BR SCT008 BECMG 2813/2816 05010KT 9999 SCT025 =
SADF 280500Z 2806/2906 06005KT CAVOK TX25/2818Z TN14/2811Z BECMG 2811/2813 01015KT =
SANU 280500Z 2809/2906 14005KT CAVOK TN05/2810Z TX24/2820Z BECMG 2815/2818 16010KT 9999 SCT040 =
SAOU 280500Z 2809/2906 09005KT CAVOK TN10/2809Z TX25/2819Z TEMPO 2809/2812 1200 BR SCT012 BECMG 2814/2817 05010KT 9999 SCT035 =
SAMR 280500Z 2809/2906 23005KT CAVOK TN04/2810Z TX21/2820Z BECMG 2815/2818 14010KT 9999 SCT030 =
SAZR 280500Z 2806/2906 16005KT 0200 FG OVC003 TX19/2818Z TN08/2906Z BECMG 2813/2815 16010KT 9999 BKN030 =
SANE 280500Z 2809/2906 05005KT CAVOK TX32/2818Z TN13/2810Z TEMPO 2809/2812 3000 BR SCT010 BECMG 2813/2816 02020KTG30KT 7000 DU SCT030 =
SAAV 280500Z 2806/2906 08005KT CAVOK TX28/2818Z TN18/2810Z BECMG 2814/2816 02015KT BECMG 2821/2823 05010KT =
SANR 280500Z 2809/2906 32005KT CAVOK TX28/2818Z TN12/2810Z TEMPO 2809/2812 0800 FG SCT015 BECMG 2813/2816 05015KT 9999 SCT030 =
SAVT 280500Z 2806/2906 36004KT 9999 FEW040 SCT060 TX20/2819Z TN07/2812Z =
SANT 280500Z 2809/2906 32005KT 5000 FU NSC TX29/2818Z TN14/2810Z TEMPO 2809/2812 32005KT 1200 BR SCT010 BECMG 2813/2816 23005KT 6000 FU SCT035 =
SAWH 280500Z 2806/2906 23018KT 8000 SN BKN014 BKN030 TX06/2819Z TNM01/2812 PROB40 TEMPO 2808/2812 2000 SN OVC012 =
SAVV 280500Z 2806/2906 32010KT CAVOK TX20/2819Z TN08/2812Z =
SUCA 280520Z 2806/2906 04010KT CAVOK TX26/2818Z TN15/2810Z PROB30 TEMPO 2806/2810 3000 BR NSC BECMG 2810/2812 35015KT 9999 FEW026 BKN200 =
SULS 280520Z 2806/2906 04010KT CAVOK TX26/2818Z TN15/2810Z PROB30 TEMPO 2806/2810 3000 BR NSC BECMG 2810/2812 35015KT 9999 FEW026 BKN200 =
SUAA 280520Z 2806/2906 04010KT CAVOK TX26/2818Z TN15/2810Z PROB30 TEMPO 2806/2810 3000 BR NSC BECMG 2810/2812 35015KT 9999 FEW026 BKN200 =
SUMU 280520Z 2806/2906 04008KT CAVOK TX26/2818Z TN15/2810Z PROB30 TEMPO 2806/2810 3000 BR NSC BECMG 2810/2812 35015KT 9999 FEW026 BKN200 =